Time;durP1;ratioP1;P1;durP2;ratioP2;P2;SDS_P1;SDS_P2;PMS_P1;PMS_P2;Temp;Humidity;BMP_temperature;BMP_pressure;BME280_temperature;BME280_humidity;BME280_pressure;Samples;Min_cycle;Max_cycle;Signal;HPM_P1;HPM_P2
2022/04/09 00:02:14;;;;;;;13.95;7.88;;;5.40;99.90;;;;;;5036840;28;20075;-67
2022/04/09 00:04:40;;;;;;;7.63;5.90;;;5.50;99.90;;;;;;5054534;28;20021;-71
2022/04/09 00:07:05;;;;;;;10.05;6.50;;;5.50;99.90;;;;;;5055788;28;20053;-68
2022/04/09 00:09:31;;;;;;;9.20;7.28;;;5.60;99.90;;;;;;5037544;28;20464;-72
2022/04/09 00:11:57;;;;;;;10.82;7.57;;;5.60;99.90;;;;;;5038588;28;20025;-69
2022/04/09 00:14:23;;;;;;;12.52;7.00;;;5.50;99.90;;;;;;5055143;28;20021;-70
2022/04/09 00:16:49;;;;;;;12.70;8.80;;;5.60;99.90;;;;;;5054957;28;20021;-68
2022/04/09 00:19:15;;;;;;;12.90;8.27;;;5.60;99.90;;;;;;5054372;28;20036;-68
2022/04/09 00:21:41;;;;;;;11.43;8.75;;;5.60;99.90;;;;;;5056178;28;20033;-69
2022/04/09 00:24:06;;;;;;;10.25;7.85;;;5.70;99.90;;;;;;5056038;28;20056;-71
2022/04/09 00:26:32;;;;;;;11.10;8.10;;;5.70;99.90;;;;;;5037090;28;20090;-69
2022/04/09 00:28:58;;;;;;;14.93;8.63;;;5.70;99.90;;;;;;5055617;28;20025;-70
2022/04/09 00:31:23;;;;;;;12.88;9.07;;;5.70;99.90;;;;;;5055707;28;20028;-72
2022/04/09 00:33:49;;;;;;;10.52;8.10;;;5.70;99.90;;;;;;5057050;28;20024;-69
2022/04/09 00:36:15;;;;;;;11.80;9.55;;;5.80;99.90;;;;;;5036368;28;20116;-67
2022/04/09 00:38:40;;;;;;;12.27;8.90;;;5.80;99.90;;;;;;5054197;28;20060;-68
2022/04/09 00:41:10;;;;;;;12.15;8.98;;;5.70;99.90;;;;;;5054811;28;20035;-68
2022/04/09 00:43:42;;;;;;;11.45;8.75;;;5.80;99.90;;;;;;5053888;28;20025;-72
2022/04/09 00:46:11;;;;;;;13.65;10.50;;;5.80;99.90;;;;;;5054164;28;20024;-70
2022/04/09 00:48:37;;;;;;;15.98;10.20;;;5.70;99.90;;;;;;5035053;28;20024;-69
2022/04/09 00:51:03;;;;;;;11.23;9.07;;;5.80;99.90;;;;;;5053635;28;20025;-68
2022/04/09 00:53:37;;;;;;;12.85;8.57;;;5.80;99.90;;;;;;5035329;28;20052;-69
2022/04/09 00:56:13;;;;;;;12.88;9.57;;;5.80;99.90;;;;;;5036079;28;20378;-70
2022/04/09 00:58:46;;;;;;;15.00;10.00;;;5.90;99.90;;;;;;5054034;28;20043;-69
2022/04/09 01:01:13;;;;;;;15.00;9.73;;;5.80;99.90;;;;;;5054278;28;20554;-69
2022/04/09 01:03:39;;;;;;;11.52;9.10;;;5.80;99.90;;;;;;5054078;28;20017;-68
2022/04/09 01:06:09;;;;;;;11.82;8.55;;;5.80;99.90;;;;;;5055051;28;20473;-69
2022/04/09 01:08:35;;;;;;;11.60;9.18;;;5.80;99.90;;;;;;5037650;28;20021;-68
2022/04/09 01:11:01;;;;;;;15.18;9.65;;;5.70;99.90;;;;;;5037918;28;20043;-68
2022/04/09 01:13:26;;;;;;;17.20;11.43;;;5.60;99.90;;;;;;5035221;28;20021;-72
2022/04/09 01:15:53;;;;;;;13.23;9.32;;;5.50;99.90;;;;;;5054892;28;20474;-69
2022/04/09 01:18:19;;;;;;;16.65;10.57;;;5.40;99.90;;;;;;5053280;28;20021;-68
2022/04/09 01:20:45;;;;;;;12.60;8.60;;;5.50;99.90;;;;;;5053910;28;20029;-68
2022/04/09 01:23:10;;;;;;;10.32;7.57;;;5.50;99.90;;;;;;5036090;28;20028;-68
2022/04/09 01:25:37;;;;;;;12.88;8.75;;;5.60;99.90;;;;;;5053388;28;20017;-70
2022/04/09 01:28:04;;;;;;;12.38;9.27;;;5.70;99.90;;;;;;5054002;28;20350;-67
2022/04/09 01:30:30;;;;;;;14.02;8.15;;;5.50;99.90;;;;;;5034670;28;20550;-68
2022/04/09 01:32:56;;;;;;;16.45;9.02;;;5.50;99.90;;;;;;5052811;28;20032;-67
2022/04/09 01:35:21;;;;;;;12.77;6.80;;;5.50;99.90;;;;;;5034595;28;20478;-67
2022/04/09 01:37:48;;;;;;;13.07;7.68;;;5.50;99.90;;;;;;5035020;28;20349;-68
2022/04/09 01:40:16;;;;;;;13.02;7.82;;;5.60;99.90;;;;;;5052778;28;20031;-70
2022/04/09 01:42:41;;;;;;;9.25;7.63;;;5.60;99.90;;;;;;5034494;28;20029;-68
2022/04/09 01:45:08;;;;;;;13.10;7.25;;;5.60;99.90;;;;;;5052539;28;20040;-69
2022/04/09 01:47:36;;;;;;;11.48;6.53;;;5.50;99.90;;;;;;5051961;28;20508;-69
2022/04/09 01:50:02;;;;;;;13.43;7.10;;;5.50;99.90;;;;;;5034703;28;20078;-68
2022/04/09 01:52:27;;;;;;;10.77;6.18;;;5.60;99.90;;;;;;5018611;28;20024;-73
2022/04/09 01:54:53;;;;;;;10.93;7.00;;;5.60;99.90;;;;;;5035986;28;20403;-68
2022/04/09 01:57:19;;;;;;;16.25;6.82;;;5.50;99.90;;;;;;5053669;28;20025;-65
2022/04/09 01:59:44;;;;;;;7.65;5.43;;;5.50;99.90;;;;;;5036825;28;20025;-71
2022/04/09 02:02:11;;;;;;;8.18;6.13;;;5.50;99.90;;;;;;5036379;28;20036;-69
2022/04/09 02:04:36;;;;;;;7.80;4.93;;;5.60;99.90;;;;;;5034690;28;20023;-69
2022/04/09 02:07:02;;;;;;;10.02;4.78;;;5.60;99.90;;;;;;5057335;28;20021;-69
2022/04/09 02:09:28;;;;;;;9.35;4.75;;;5.60;99.90;;;;;;5040700;28;20017;-68
2022/04/09 02:11:54;;;;;;;10.23;4.28;;;5.50;99.90;;;;;;5058303;28;20067;-69
2022/04/09 02:14:20;;;;;;;8.90;4.25;;;5.70;99.90;;;;;;5039465;28;20405;-67
2022/04/09 02:16:46;;;;;;;21.80;4.93;;;5.60;99.90;;;;;;5056562;28;20386;-68
2022/04/09 02:19:12;;;;;;;8.50;4.43;;;5.60;99.90;;;;;;5056275;28;20029;-68
2022/04/09 02:21:38;;;;;;;7.22;4.28;;;5.70;99.90;;;;;;5038066;28;20021;-68
2022/04/09 02:24:04;;;;;;;8.07;4.22;;;5.70;99.90;;;;;;5056473;28;20032;-69
2022/04/09 02:26:29;;;;;;;6.07;4.47;;;5.60;99.90;;;;;;5055720;28;20028;-68
2022/04/09 02:28:56;;;;;;;7.07;4.55;;;5.70;99.90;;;;;;5055598;28;20088;-68
2022/04/09 02:31:22;;;;;;;10.75;4.45;;;5.80;99.90;;;;;;5037028;28;20025;-66
2022/04/09 02:33:48;;;;;;;10.95;5.00;;;5.80;99.90;;;;;;5056105;28;20036;-71
2022/04/09 02:36:16;;;;;;;11.35;6.68;;;5.80;99.90;;;;;;5055345;28;20025;-68
2022/04/09 02:38:43;;;;;;;6.20;5.05;;;5.80;99.90;;;;;;5054828;28;20462;-68
2022/04/09 02:41:09;;;;;;;13.98;5.85;;;5.80;99.90;;;;;;5037294;28;20028;-68
2022/04/09 02:43:36;;;;;;;8.90;5.95;;;5.80;99.90;;;;;;5037231;28;20096;-68
2022/04/09 02:46:02;;;;;;;8.13;5.82;;;5.80;99.90;;;;;;5037611;28;20052;-68
2022/04/09 02:48:27;;;;;;;14.32;6.63;;;5.80;99.90;;;;;;5054719;28;20075;-68
2022/04/09 02:50:54;;;;;;;9.20;6.57;;;5.80;99.90;;;;;;5055783;28;20025;-68
2022/04/09 02:53:20;;;;;;;12.85;7.60;;;5.90;99.90;;;;;;5037743;28;20031;-67
2022/04/09 02:55:46;;;;;;;13.30;7.35;;;5.90;99.90;;;;;;5054673;28;20520;-68
2022/04/09 02:58:11;;;;;;;15.48;6.68;;;5.90;99.90;;;;;;5056068;28;20025;-68
2022/04/09 03:00:38;;;;;;;15.70;8.05;;;5.90;99.90;;;;;;5054946;28;20402;-69
2022/04/09 03:03:04;;;;;;;14.32;6.88;;;5.90;99.90;;;;;;5056436;28;20025;-68
2022/04/09 03:05:30;;;;;;;14.30;6.85;;;5.90;99.90;;;;;;5038223;28;20021;-68
2022/04/09 03:07:57;;;;;;;10.27;6.90;;;5.80;99.90;;;;;;5055721;28;20017;-68
2022/04/09 03:10:23;;;;;;;11.82;6.70;;;5.80;99.90;;;;;;5055267;28;20027;-70
2022/04/09 03:12:49;;;;;;;11.70;6.90;;;5.80;99.90;;;;;;5056304;28;20100;-68
2022/04/09 03:15:15;;;;;;;18.38;7.80;;;5.80;99.90;;;;;;5057093;28;20084;-69
2022/04/09 03:17:41;;;;;;;13.13;6.93;;;5.80;99.90;;;;;;5037393;28;20024;-70
2022/04/09 03:20:11;;;;;;;13.02;6.53;;;5.80;99.90;;;;;;5056634;28;20024;-71
2022/04/09 03:22:36;;;;;;;14.10;7.15;;;5.80;99.90;;;;;;5055492;28;20072;-70
2022/04/09 03:25:03;;;;;;;10.23;6.63;;;5.80;99.90;;;;;;5038350;28;20398;-69
2022/04/09 03:27:29;;;;;;;14.95;7.97;;;5.70;99.90;;;;;;5054701;28;20017;-68
2022/04/09 03:29:55;;;;;;;13.68;6.53;;;5.70;99.90;;;;;;5038389;28;20123;-71
2022/04/09 03:32:22;;;;;;;16.33;7.72;;;5.70;99.90;;;;;;5056373;28;20029;-68
2022/04/09 03:34:48;;;;;;;11.55;6.38;;;5.70;99.90;;;;;;5037996;28;20021;-68
2022/04/09 03:37:14;;;;;;;11.27;6.03;;;5.70;99.90;;;;;;5039746;28;20056;-73
2022/04/09 03:39:44;;;;;;;10.90;5.85;;;5.70;99.90;;;;;;5057008;28;20408;-68
2022/04/09 03:42:10;;;;;;;14.48;5.80;;;5.60;99.90;;;;;;5038361;28;20129;-70
2022/04/09 03:44:35;;;;;;;9.85;4.40;;;5.70;99.90;;;;;;5053788;28;20470;-68
2022/04/09 03:47:03;;;;;;;9.13;5.95;;;5.60;99.90;;;;;;5054736;28;20027;-68
2022/04/09 03:49:29;;;;;;;12.07;5.32;;;5.50;99.90;;;;;;5036856;28;20021;-68
2022/04/09 03:51:55;;;;;;;14.13;5.60;;;5.60;99.90;;;;;;5057843;28;20378;-70
2022/04/09 03:54:21;;;;;;;10.40;4.88;;;5.60;99.90;;;;;;5037793;28;20025;-69
2022/04/09 03:56:47;;;;;;;10.15;4.75;;;5.60;99.90;;;;;;5054113;28;20025;-67
2022/04/09 03:59:12;;;;;;;7.07;4.47;;;5.60;99.90;;;;;;5036852;28;20020;-68
2022/04/09 04:01:38;;;;;;;10.57;5.28;;;5.70;99.90;;;;;;5038055;28;20508;-69
2022/04/09 04:04:05;;;;;;;11.18;5.13;;;5.70;99.90;;;;;;5054185;28;20056;-68
2022/04/09 04:06:31;;;;;;;18.15;4.90;;;5.60;99.90;;;;;;5053605;28;20051;-67
2022/04/09 04:08:57;;;;;;;9.23;4.45;;;5.60;99.90;;;;;;5051189;28;20463;-70
2022/04/09 04:11:23;;;;;;;7.50;3.92;;;5.60;99.90;;;;;;5042079;28;20021;-68
2022/04/09 04:13:50;;;;;;;8.25;4.90;;;5.80;99.90;;;;;;5029445;28;20036;-69
2022/04/09 04:16:16;;;;;;;16.60;5.60;;;6.80;99.90;;;;;;5058639;28;20119;-69
2022/04/09 04:18:42;;;;;;;8.80;4.30;;;6.40;99.90;;;;;;5050422;28;20462;-69
2022/04/09 04:21:08;;;;;;;9.20;3.90;;;6.20;99.90;;;;;;5038096;28;20025;-68
2022/04/09 04:23:35;;;;;;;11.65;4.28;;;6.00;99.90;;;;;;5037292;28;20024;-68
2022/04/09 04:26:01;;;;;;;7.03;4.55;;;5.90;99.90;;;;;;5053084;28;20047;-69
2022/04/09 04:28:27;;;;;;;10.05;4.47;;;5.90;99.90;;;;;;5028173;28;20095;-71
2022/04/09 04:30:53;;;;;;;20.42;4.97;;;5.90;99.90;;;;;;5024454;28;20475;-71
2022/04/09 04:33:18;;;;;;;13.75;4.00;;;5.80;99.90;;;;;;5055207;28;20515;-73
2022/04/09 04:35:46;;;;;;;19.85;4.72;;;5.70;99.90;;;;;;5053208;28;20505;-68
2022/04/09 04:38:12;;;;;;;11.27;4.95;;;5.60;99.90;;;;;;5035855;28;20052;-69
2022/04/09 04:40:38;;;;;;;11.82;4.20;;;5.70;99.90;;;;;;5035929;28;20028;-68
2022/04/09 04:43:05;;;;;;;9.77;3.95;;;5.80;99.90;;;;;;5054308;28;20057;-66
2022/04/09 04:45:31;;;;;;;17.25;5.43;;;5.60;99.90;;;;;;5052436;28;20091;-66
2022/04/09 04:47:57;;;;;;;15.98;5.90;;;5.50;99.90;;;;;;5031929;28;20447;-67
2022/04/09 04:50:23;;;;;;;7.80;4.60;;;5.50;99.90;;;;;;5042108;28;20034;-66
2022/04/09 04:52:49;;;;;;;15.30;5.28;;;5.40;99.90;;;;;;5035833;28;20585;-67
2022/04/09 04:55:15;;;;;;;6.35;4.47;;;5.30;99.90;;;;;;5038055;28;20044;-72
2022/04/09 04:57:52;;;;;;;8.35;4.82;;;5.30;99.90;;;;;;5056473;28;20124;-70
2022/04/09 05:00:23;;;;;;;10.48;4.63;;;5.30;99.90;;;;;;5038306;28;20112;-69
2022/04/09 05:02:49;;;;;;;14.48;5.18;;;5.40;99.90;;;;;;5055892;28;20093;-70
2022/04/09 05:05:15;;;;;;;12.32;4.53;;;5.20;99.90;;;;;;5055659;28;20025;-68
2022/04/09 05:07:46;;;;;;;10.88;5.00;;;5.20;99.90;;;;;;5055403;28;20094;-73
2022/04/09 05:10:14;;;;;;;12.30;4.45;;;5.30;99.90;;;;;;5037251;28;20028;-71
2022/04/09 05:12:40;;;;;;;15.23;5.35;;;5.30;99.90;;;;;;5046019;28;20546;-69
